Arklow Fame — EIXN — position and weather

sailwx.info

Track history (hours):
 
Tides and Currents Weather Stations Pressure Air Temp Water Temp Dewpoint Dewpoint Depression Visibility Wind Speed Wind Dir Waves Ship Positions

Arklow Fame

Last reported at 2018-Apr-24 22:11 UTC. Time now 2018-Apr-24 22:53 UTC.
Position N 39°16' W 009°50'.

Length 90 m; draft 6.5 m.

Type: Cargo ship. MMSI: 250000817.

Date/timePositionNaut miles runAvg speedWind from/ knotsBaromVisibWave heightAir tempDewpointWater temp
2018-Apr-24 22:11N 39°16' W 009°50'2 8.5
2018-Apr-24 22:00N 39°15' W 009°50'4 8.7
2018-Apr-24 21:30N 39°10' W 009°50'4 8.6
2018-Apr-24 21:01N 39°06' W 009°50'4 8.7
2018-Apr-24 20:31N 39°02' W 009°50'4 8.8
2018-Apr-24 20:00N 38°57' W 009°50'4 8.6
2018-Apr-24 19:30N 38°53' W 009°50'4 8.4
2018-Apr-24 19:00N 38°49' W 009°50'4 8.4
2018-Apr-24 18:30N 38°45' W 009°50'4 8.1
2018-Apr-24 18:01N 38°41' W 009°50'4 7.6
2018-Apr-24 17:31N 38°37' W 009°47'5 9.5
2018-Apr-24 17:01N 38°37' W 009°41'5 9.6
2018-Apr-24 16:31N 38°37' W 009°35'5 9.7
2018-Apr-24 16:00N 38°37' W 009°28'510.6
2018-Apr-24 15:30N 38°38' W 009°22'612.2
2018-Apr-24 15:00N 38°41' W 009°15'510.7
2018-Apr-24 14:30N 38°42' W 009°08'3 5.6
2018-Apr-24 13:58N 38°44' W 009°06'0 0.0
2018-Apr-24 13:25N 38°44' W 009°06'0 0.0
2018-Apr-24 12:58N 38°44' W 009°06'0 0.0
2018-Apr-24 11:28N 38°44' W 009°06'0 0.0
2018-Apr-24 10:55N 38°44' W 009°06'0 0.0
2018-Apr-24 10:22N 38°44' W 009°06'0 0.0
2018-Apr-24 08:58N 38°44' W 009°06'0 0.0
2018-Apr-24 08:28N 38°44' W 009°06'0 0.0
2018-Apr-24 07:55N 38°44' W 009°06'0 0.0
2018-Apr-24 05:40N 38°44' W 009°06'0 0.0
2018-Apr-24 05:28N 38°44' W 009°06'0 0.0
2018-Apr-24 04:58N 38°44' W 009°06'0 0.0
2018-Apr-24 04:16N 38°44' W 009°06'0 0.0
2018-Apr-24 03:58N 38°44' W 009°06'0 0.0
2018-Apr-24 03:28N 38°44' W 009°06'0 0.0
2018-Apr-24 02:58N 38°44' W 009°06'0 0.0
2018-Apr-24 02:28N 38°44' W 009°06'0 0.0
2018-Apr-24 01:52N 38°44' W 009°06'0 0.0
2018-Apr-24 01:28N 38°44' W 009°06'0 0.0
2018-Apr-24 00:49N 38°44' W 009°06'0 0.0
2018-Apr-24 00:28N 38°44' W 009°06'0 0.0
2018-Apr-23 23:46N 38°44' W 009°06'0 0.0
2018-Apr-23 23:16N 38°44' W 009°06'0 0.0
2018-Apr-23 22:58N 38°44' W 009°06'0 0.0
2018-Apr-23 22:22N 38°44' W 009°06'0 0.0
2018-Apr-23 21:58N 38°44' W 009°06'0 0.0
2018-Apr-23 21:28N 38°44' W 009°06'0 0.0
2018-Apr-23 20:55N 38°44' W 009°06'0 0.0
2018-Apr-23 20:01N 38°44' W 009°06'0 0.0
2018-Apr-23 19:55N 38°44' W 009°06'0 0.0
2018-Apr-23 18:16N 38°44' W 009°06'0 0.0
2018-Apr-23 14:46N 38°44' W 009°06'0 0.0
2018-Apr-23 14:16N 38°44' W 009°06'0 0.0
2018-Apr-23 13:49N 38°44' W 009°06'0 0.0
2018-Apr-23 13:22N 38°44' W 009°06'0 0.0
2018-Apr-23 12:58N 38°44' W 009°06'0 0.0
2018-Apr-23 12:01N 38°44' W 009°06'0 0.0
2018-Apr-23 11:55N 38°44' W 009°06'0 0.0
2018-Apr-23 11:25N 38°44' W 009°06'0 0.0
2018-Apr-23 10:46N 38°44' W 009°06'0 0.0
2018-Apr-23 10:28N 38°44' W 009°06'0 0.0
2018-Apr-23 09:58N 38°44' W 009°06'0 0.0
2018-Apr-23 09:28N 38°44' W 009°06'0 0.0
2018-Apr-23 08:58N 38°44' W 009°06'0 0.0
2018-Apr-23 08:25N 38°44' W 009°06'0 0.0
2018-Apr-23 07:58N 38°44' W 009°06'0 0.0
2018-Apr-23 07:25N 38°44' W 009°06'0 0.0
2018-Apr-23 06:58N 38°44' W 009°06'0 0.0
2018-Apr-23 06:19N 38°44' W 009°06'0 0.0
2018-Apr-23 04:22N 38°44' W 009°06'0 0.0
2018-Apr-22 23:49N 38°44' W 009°06'0 0.0
2018-Apr-22 23:19N 38°44' W 009°06'0 0.0
2018-Apr-22 18:25N 38°44' W 009°06'0 0.0
2018-Apr-22 17:58N 38°44' W 009°06'0 0.0
2018-Apr-22 15:55N 38°44' W 009°06'0 0.0
2018-Apr-22 14:49N 38°44' W 009°06'0 0.0
2018-Apr-22 14:25N 38°44' W 009°06'0 0.0
2018-Apr-22 13:55N 38°44' W 009°06'0 0.0
2018-Apr-22 13:25N 38°44' W 009°06'0 0.0
2018-Apr-22 12:52N 38°44' W 009°06'0 0.0
2018-Apr-22 12:07N 38°44' W 009°06'0 0.0
2018-Apr-22 11:43N 38°44' W 009°06'0 0.0
2018-Apr-22 11:25N 38°44' W 009°06'0 0.0
2018-Apr-22 10:58N 38°44' W 009°06'0 0.0
2018-Apr-22 10:28N 38°44' W 009°06'0 0.0
2018-Apr-22 09:58N 38°44' W 009°06'0 0.0
2018-Apr-22 09:28N 38°44' W 009°06'0 0.0
2018-Apr-22 08:52N 38°44' W 009°06'0 0.0
2018-Apr-22 08:28N 38°44' W 009°06'0 0.0
2018-Apr-22 07:46N 38°44' W 009°06'0 0.0
2018-Apr-22 07:28N 38°44' W 009°06'0 0.0
2018-Apr-22 06:49N 38°44' W 009°06'0 0.0
2018-Apr-22 06:28N 38°44' W 009°06'0 0.0
2018-Apr-22 05:58N 38°44' W 009°06'0 0.0
2018-Apr-22 05:28N 38°44' W 009°06'0 0.0
2018-Apr-22 04:55N 38°44' W 009°06'0 0.0
2018-Apr-22 04:28N 38°44' W 009°06'0 0.0
2018-Apr-22 03:58N 38°44' W 009°06'0 0.0
2018-Apr-22 00:01N 38°44' W 009°06'0 0.0
2018-Apr-21 23:49N 38°44' W 009°06'0 0.0
2018-Apr-21 23:31N 38°44' W 009°06'0 0.0
2018-Apr-21 22:55N 38°44' W 009°06'0 0.0
2018-Apr-21 22:25N 38°44' W 009°06'0 0.0
2018-Apr-21 21:58N 38°44' W 009°06'0 0.0
2018-Apr-21 21:25N 38°44' W 009°06'0 0.0
2018-Apr-21 20:58N 38°44' W 009°06'0 0.0
2018-Apr-21 20:28N 38°44' W 009°06'0 0.0
2018-Apr-21 19:52N 38°44' W 009°06'0 0.0
2018-Apr-21 19:28N 38°44' W 009°06'0 0.0
2018-Apr-21 18:16N 38°44' W 009°06'0 0.0
2018-Apr-21 17:58N 38°44' W 009°06'0 0.0
2018-Apr-21 17:28N 38°44' W 009°06'0 0.0
2018-Apr-21 16:58N 38°44' W 009°06'0 0.0
2018-Apr-21 16:28N 38°44' W 009°06'0 0.0
2018-Apr-21 15:58N 38°44' W 009°06'0 0.0
2018-Apr-21 15:28N 38°44' W 009°06'0 0.0
2018-Apr-21 14:52N 38°44' W 009°06'0 0.0
2018-Apr-21 14:22N 38°44' W 009°06'0 0.0
2018-Apr-21 13:52N 38°44' W 009°06'0 0.0
2018-Apr-21 13:28N 38°44' W 009°06'0 0.0
2018-Apr-21 12:46N 38°44' W 009°06'0 0.0
2018-Apr-21 12:28N 38°44' W 009°06'0 0.0
2018-Apr-21 10:25N 38°44' W 009°06'0 0.0
2018-Apr-21 09:55N 38°44' W 009°06'0 0.0
2018-Apr-21 09:25N 38°44' W 009°06'0 0.0
2018-Apr-21 08:58N 38°44' W 009°06'0 0.0
2018-Apr-21 08:13N 38°44' W 009°06'0 0.0
2018-Apr-21 05:10N 38°44' W 009°06'0 0.0
2018-Apr-21 04:46N 38°44' W 009°06'0 0.0
2018-Apr-21 04:31N 38°44' W 009°06'0 0.0
2018-Apr-21 03:55N 38°44' W 009°06'0 0.0
2018-Apr-21 03:13N 38°44' W 009°06'0 0.0
2018-Apr-20 12:55N 38°44' W 009°06'0 0.0
2018-Apr-20 09:10N 38°44' W 009°06'0 0.0
2018-Apr-20 04:43N 38°44' W 009°06'0 0.0
2018-Apr-20 04:25N 38°44' W 009°06'0 0.0
2018-Apr-20 03:37N 38°44' W 009°06'0 0.0
2018-Apr-20 03:25N 38°44' W 009°06'0 0.0
2018-Apr-20 02:55N 38°44' W 009°06'0 0.0
2018-Apr-20 02:28N 38°44' W 009°06'0 0.0
2018-Apr-20 01:58N 38°44' W 009°06'0 0.0
2018-Apr-20 01:31N 38°44' W 009°06'0 0.0
2018-Apr-20 00:58N 38°44' W 009°06'0 0.0
2018-Apr-20 00:31N 38°44' W 009°06'0 0.0
2018-Apr-19 23:58N 38°44' W 009°06'0 0.0
2018-Apr-19 23:28N 38°44' W 009°06'0 0.0
2018-Apr-19 22:58N 38°44' W 009°06'0 0.0
2018-Apr-19 22:28N 38°44' W 009°06'0 0.0
2018-Apr-19 21:58N 38°44' W 009°06'0 0.0
2018-Apr-19 21:28N 38°44' W 009°06'0 0.0
2018-Apr-19 21:01N 38°44' W 009°06'0 0.0
2018-Apr-19 20:22N 38°44' W 009°06'0 0.0
2018-Apr-19 19:19N 38°44' W 009°06'0 0.2
2018-Apr-19 18:57N 38°44' W 009°06'2 4.3
2018-Apr-19 18:30N 38°43' W 009°07'611.3
2018-Apr-19 18:00N 38°41' W 009°14'510.2
2018-Apr-19 17:31N 38°39' W 009°20'611.0
2018-Apr-19 17:00N 38°34' W 009°23'611.5
2018-Apr-19 16:30N 38°28' W 009°22'611.5
2018-Apr-19 16:01N 38°22' W 009°22'611.5
2018-Apr-19 15:30N 38°16' W 009°21'611.5
2018-Apr-19 15:01N 38°11' W 009°21'611.4
2018-Apr-19 14:31N 38°05' W 009°21'611.5
2018-Apr-19 14:01N 37°59' W 009°21'611.4
2018-Apr-19 13:31N 37°54' W 009°21'611.2
2018-Apr-19 13:00N 37°48' W 009°21'611.4
2018-Apr-19 12:29N 37°42' W 009°21'611.5
2018-Apr-19 12:00N 37°36' W 009°20'2011.7
2018-Apr-19 10:16N 37°16' W 009°20'311.5
2018-Apr-19 10:00N 37°13' W 009°20'611.7
2018-Apr-19 09:30N 37°07' W 009°20'3510.0
2018-Apr-19 06:03N 36°44' W 008°48'112.5
2018-Apr-19 06:00N 36°44' W 008°48'1211.9
2018-Apr-19 04:57N 36°44' W 008°32'  
2018-Apr-16 04:56N 38°22' W 009°60'1911.8
2018-Apr-16 03:18N 38°41' W 010°06'411.7
2018-Apr-16 02:58N 38°45' W 010°06'611.8
2018-Apr-16 02:30N 38°50' W 010°06'611.6
2018-Apr-16 02:00N 38°56' W 010°07'611.0
2018-Apr-16 01:30N 39°01' W 010°07'  
Track history (hours):
 
Tides and Currents Weather Stations Pressure Air Temp Water Temp Dewpoint Dewpoint Depression Visibility Wind Speed Wind Dir Waves Ship Positions

Arklow Fame

Last reported at 2018-Apr-24 22:11 UTC. Time now 2018-Apr-24 22:53 UTC.
Position N 39°16' W 009°50'.

Length 90 m; draft 6.5 m.

Type: Cargo ship. MMSI: 250000817.

Date/timePositionNaut miles runAvg speedWind from/ knotsBaromVisibWave heightAir tempDewpointWater temp
2018-Apr-24 22:11N 39°16' W 009°50'2 8.5
2018-Apr-24 22:00N 39°15' W 009°50'4 8.7
2018-Apr-24 21:30N 39°10' W 009°50'4 8.6
2018-Apr-24 21:01N 39°06' W 009°50'4 8.7
2018-Apr-24 20:31N 39°02' W 009°50'4 8.8
2018-Apr-24 20:00N 38°57' W 009°50'4 8.6
2018-Apr-24 19:30N 38°53' W 009°50'4 8.4
2018-Apr-24 19:00N 38°49' W 009°50'4 8.4
2018-Apr-24 18:30N 38°45' W 009°50'4 8.1
2018-Apr-24 18:01N 38°41' W 009°50'4 7.6
2018-Apr-24 17:31N 38°37' W 009°47'5 9.5
2018-Apr-24 17:01N 38°37' W 009°41'5 9.6
2018-Apr-24 16:31N 38°37' W 009°35'5 9.7
2018-Apr-24 16:00N 38°37' W 009°28'510.6
2018-Apr-24 15:30N 38°38' W 009°22'612.2
2018-Apr-24 15:00N 38°41' W 009°15'510.7
2018-Apr-24 14:30N 38°42' W 009°08'3 5.6
2018-Apr-24 13:58N 38°44' W 009°06'0 0.0
2018-Apr-24 13:25N 38°44' W 009°06'0 0.0
2018-Apr-24 12:58N 38°44' W 009°06'0 0.0
2018-Apr-24 11:28N 38°44' W 009°06'0 0.0
2018-Apr-24 10:55N 38°44' W 009°06'0 0.0
2018-Apr-24 10:22N 38°44' W 009°06'0 0.0
2018-Apr-24 08:58N 38°44' W 009°06'0 0.0
2018-Apr-24 08:28N 38°44' W 009°06'0 0.0
2018-Apr-24 07:55N 38°44' W 009°06'0 0.0
2018-Apr-24 05:40N 38°44' W 009°06'0 0.0
2018-Apr-24 05:28N 38°44' W 009°06'0 0.0
2018-Apr-24 04:58N 38°44' W 009°06'0 0.0
2018-Apr-24 04:16N 38°44' W 009°06'0 0.0
2018-Apr-24 03:58N 38°44' W 009°06'0 0.0
2018-Apr-24 03:28N 38°44' W 009°06'0 0.0
2018-Apr-24 02:58N 38°44' W 009°06'0 0.0
2018-Apr-24 02:28N 38°44' W 009°06'0 0.0
2018-Apr-24 01:52N 38°44' W 009°06'0 0.0
2018-Apr-24 01:28N 38°44' W 009°06'0 0.0
2018-Apr-24 00:49N 38°44' W 009°06'0 0.0
2018-Apr-24 00:28N 38°44' W 009°06'0 0.0
2018-Apr-23 23:46N 38°44' W 009°06'0 0.0
2018-Apr-23 23:16N 38°44' W 009°06'0 0.0
2018-Apr-23 22:58N 38°44' W 009°06'0 0.0
2018-Apr-23 22:22N 38°44' W 009°06'0 0.0
2018-Apr-23 21:58N 38°44' W 009°06'0 0.0
2018-Apr-23 21:28N 38°44' W 009°06'0 0.0
2018-Apr-23 20:55N 38°44' W 009°06'0 0.0
2018-Apr-23 20:01N 38°44' W 009°06'0 0.0
2018-Apr-23 19:55N 38°44' W 009°06'0 0.0
2018-Apr-23 18:16N 38°44' W 009°06'0 0.0
2018-Apr-23 14:46N 38°44' W 009°06'0 0.0
2018-Apr-23 14:16N 38°44' W 009°06'0 0.0
2018-Apr-23 13:49N 38°44' W 009°06'0 0.0
2018-Apr-23 13:22N 38°44' W 009°06'0 0.0
2018-Apr-23 12:58N 38°44' W 009°06'0 0.0
2018-Apr-23 12:01N 38°44' W 009°06'0 0.0
2018-Apr-23 11:55N 38°44' W 009°06'0 0.0
2018-Apr-23 11:25N 38°44' W 009°06'0 0.0
2018-Apr-23 10:46N 38°44' W 009°06'0 0.0
2018-Apr-23 10:28N 38°44' W 009°06'0 0.0
2018-Apr-23 09:58N 38°44' W 009°06'0 0.0
2018-Apr-23 09:28N 38°44' W 009°06'0 0.0
2018-Apr-23 08:58N 38°44' W 009°06'0 0.0
2018-Apr-23 08:25N 38°44' W 009°06'0 0.0
2018-Apr-23 07:58N 38°44' W 009°06'0 0.0
2018-Apr-23 07:25N 38°44' W 009°06'0 0.0
2018-Apr-23 06:58N 38°44' W 009°06'0 0.0
2018-Apr-23 06:19N 38°44' W 009°06'0 0.0
2018-Apr-23 04:22N 38°44' W 009°06'0 0.0
2018-Apr-22 23:49N 38°44' W 009°06'0 0.0
2018-Apr-22 23:19N 38°44' W 009°06'0 0.0
2018-Apr-22 18:25N 38°44' W 009°06'0 0.0
2018-Apr-22 17:58N 38°44' W 009°06'0 0.0
2018-Apr-22 15:55N 38°44' W 009°06'0 0.0
2018-Apr-22 14:49N 38°44' W 009°06'0 0.0
2018-Apr-22 14:25N 38°44' W 009°06'0 0.0
2018-Apr-22 13:55N 38°44' W 009°06'0 0.0
2018-Apr-22 13:25N 38°44' W 009°06'0 0.0
2018-Apr-22 12:52N 38°44' W 009°06'0 0.0
2018-Apr-22 12:07N 38°44' W 009°06'0 0.0
2018-Apr-22 11:43N 38°44' W 009°06'0 0.0
2018-Apr-22 11:25N 38°44' W 009°06'0 0.0
2018-Apr-22 10:58N 38°44' W 009°06'0 0.0
2018-Apr-22 10:28N 38°44' W 009°06'0 0.0
2018-Apr-22 09:58N 38°44' W 009°06'0 0.0
2018-Apr-22 09:28N 38°44' W 009°06'0 0.0
2018-Apr-22 08:52N 38°44' W 009°06'0 0.0
2018-Apr-22 08:28N 38°44' W 009°06'0 0.0
2018-Apr-22 07:46N 38°44' W 009°06'0 0.0
2018-Apr-22 07:28N 38°44' W 009°06'0 0.0
2018-Apr-22 06:49N 38°44' W 009°06'0 0.0
2018-Apr-22 06:28N 38°44' W 009°06'0 0.0
2018-Apr-22 05:58N 38°44' W 009°06'0 0.0
2018-Apr-22 05:28N 38°44' W 009°06'0 0.0
2018-Apr-22 04:55N 38°44' W 009°06'0 0.0
2018-Apr-22 04:28N 38°44' W 009°06'0 0.0
2018-Apr-22 03:58N 38°44' W 009°06'0 0.0
2018-Apr-22 00:01N 38°44' W 009°06'0 0.0
2018-Apr-21 23:49N 38°44' W 009°06'0 0.0
2018-Apr-21 23:31N 38°44' W 009°06'0 0.0
2018-Apr-21 22:55N 38°44' W 009°06'0 0.0
2018-Apr-21 22:25N 38°44' W 009°06'0 0.0
2018-Apr-21 21:58N 38°44' W 009°06'0 0.0
2018-Apr-21 21:25N 38°44' W 009°06'0 0.0
2018-Apr-21 20:58N 38°44' W 009°06'0 0.0
2018-Apr-21 20:28N 38°44' W 009°06'0 0.0
2018-Apr-21 19:52N 38°44' W 009°06'0 0.0
2018-Apr-21 19:28N 38°44' W 009°06'0 0.0
2018-Apr-21 18:16N 38°44' W 009°06'0 0.0
2018-Apr-21 17:58N 38°44' W 009°06'0 0.0
2018-Apr-21 17:28N 38°44' W 009°06'0 0.0
2018-Apr-21 16:58N 38°44' W 009°06'0 0.0
2018-Apr-21 16:28N 38°44' W 009°06'0 0.0
2018-Apr-21 15:58N 38°44' W 009°06'0 0.0
2018-Apr-21 15:28N 38°44' W 009°06'0 0.0
2018-Apr-21 14:52N 38°44' W 009°06'0 0.0
2018-Apr-21 14:22N 38°44' W 009°06'0 0.0
2018-Apr-21 13:52N 38°44' W 009°06'0 0.0
2018-Apr-21 13:28N 38°44' W 009°06'0 0.0
2018-Apr-21 12:46N 38°44' W 009°06'0 0.0
2018-Apr-21 12:28N 38°44' W 009°06'0 0.0
2018-Apr-21 10:25N 38°44' W 009°06'0 0.0
2018-Apr-21 09:55N 38°44' W 009°06'0 0.0
2018-Apr-21 09:25N 38°44' W 009°06'0 0.0
2018-Apr-21 08:58N 38°44' W 009°06'0 0.0
2018-Apr-21 08:13N 38°44' W 009°06'0 0.0
2018-Apr-21 05:10N 38°44' W 009°06'0 0.0
2018-Apr-21 04:46N 38°44' W 009°06'0 0.0
2018-Apr-21 04:31N 38°44' W 009°06'0 0.0
2018-Apr-21 03:55N 38°44' W 009°06'0 0.0
2018-Apr-21 03:13N 38°44' W 009°06'0 0.0
2018-Apr-20 12:55N 38°44' W 009°06'0 0.0
2018-Apr-20 09:10N 38°44' W 009°06'0 0.0
2018-Apr-20 04:43N 38°44' W 009°06'0 0.0
2018-Apr-20 04:25N 38°44' W 009°06'0 0.0
2018-Apr-20 03:37N 38°44' W 009°06'0 0.0
2018-Apr-20 03:25N 38°44' W 009°06'0 0.0
2018-Apr-20 02:55N 38°44' W 009°06'0 0.0
2018-Apr-20 02:28N 38°44' W 009°06'0 0.0
2018-Apr-20 01:58N 38°44' W 009°06'0 0.0
2018-Apr-20 01:31N 38°44' W 009°06'0 0.0
2018-Apr-20 00:58N 38°44' W 009°06'0 0.0
2018-Apr-20 00:31N 38°44' W 009°06'0 0.0
2018-Apr-19 23:58N 38°44' W 009°06'0 0.0
2018-Apr-19 23:28N 38°44' W 009°06'0 0.0
2018-Apr-19 22:58N 38°44' W 009°06'0 0.0
2018-Apr-19 22:28N 38°44' W 009°06'0 0.0
2018-Apr-19 21:58N 38°44' W 009°06'0 0.0
2018-Apr-19 21:28N 38°44' W 009°06'0 0.0
2018-Apr-19 21:01N 38°44' W 009°06'0 0.0
2018-Apr-19 20:22N 38°44' W 009°06'0 0.0
2018-Apr-19 19:19N 38°44' W 009°06'0 0.2
2018-Apr-19 18:57N 38°44' W 009°06'2 4.3
2018-Apr-19 18:30N 38°43' W 009°07'611.3
2018-Apr-19 18:00N 38°41' W 009°14'510.2
2018-Apr-19 17:31N 38°39' W 009°20'611.0
2018-Apr-19 17:00N 38°34' W 009°23'611.5
2018-Apr-19 16:30N 38°28' W 009°22'611.5
2018-Apr-19 16:01N 38°22' W 009°22'611.5
2018-Apr-19 15:30N 38°16' W 009°21'611.5
2018-Apr-19 15:01N 38°11' W 009°21'611.4
2018-Apr-19 14:31N 38°05' W 009°21'611.5
2018-Apr-19 14:01N 37°59' W 009°21'611.4
2018-Apr-19 13:31N 37°54' W 009°21'611.2
2018-Apr-19 13:00N 37°48' W 009°21'611.4
2018-Apr-19 12:29N 37°42' W 009°21'611.5
2018-Apr-19 12:00N 37°36' W 009°20'2011.7
2018-Apr-19 10:16N 37°16' W 009°20'311.5
2018-Apr-19 10:00N 37°13' W 009°20'611.7
2018-Apr-19 09:30N 37°07' W 009°20'3510.0
2018-Apr-19 06:03N 36°44' W 008°48'112.5
2018-Apr-19 06:00N 36°44' W 008°48'1211.9
2018-Apr-19 04:57N 36°44' W 008°32'  
2018-Apr-16 04:56N 38°22' W 009°60'1911.8
2018-Apr-16 03:18N 38°41' W 010°06'411.7
2018-Apr-16 02:58N 38°45' W 010°06'611.8
2018-Apr-16 02:30N 38°50' W 010°06'611.6
2018-Apr-16 02:00N 38°56' W 010°07'611.0
2018-Apr-16 01:30N 39°01' W 010°07'  

Dump ship's entire track history